Time;durP1;ratioP1;P1;durP2;ratioP2;P2;SDS_P1;SDS_P2;PMS_P1;PMS_P2;Temp;Humidity;BMP_temperature;BMP_pressure;BME280_temperature;BME280_humidity;BME280_pressure;Samples;Min_cycle;Max_cycle;Signal;HPM_P1;HPM_P2
2023/06/18 00:02:26;;;;;;;;;;;;;;;19.92;49.92;100176.13;5403747;32;34272;-75
2023/06/18 00:05:28;;;;;;;;;;;;;;;20.12;49.20;100173.66;5397139;32;35170;-68
2023/06/18 00:08:30;;;;;;;;;;;;;;;20.36;48.74;100174.31;5407584;32;35569;-69
2023/06/18 00:11:33;;;;;;;;;;;;;;;20.38;48.47;100175.00;5403038;32;35005;-76
2023/06/18 00:14:35;;;;;;;;;;;;;;;20.36;48.54;100163.63;5407904;32;34757;-68
2023/06/18 00:17:37;;;;;;;;;;;;;;;19.86;50.08;100170.44;5405353;32;37031;-75
2023/06/18 00:20:41;;;;;;;;;;;;;;;20.00;50.00;100167.50;5401912;32;34738;-68
2023/06/18 00:23:43;;;;;;;;;;;;;;;19.96;49.99;100166.03;5404401;32;34500;-76
2023/06/18 00:26:45;;;;;;;;;;;;;;;20.88;47.72;100153.91;5403518;32;34335;-75
2023/06/18 00:29:47;;;;;;;;;;;;;;;21.03;47.02;100147.22;5401285;32;35728;-67
2023/06/18 00:32:51;;;;;;;;;;;;;;;21.21;46.56;100154.66;5399134;32;35117;-75
2023/06/18 00:35:56;;;;;;;;;;;;;;;20.02;49.47;100165.53;5403529;32;35575;-68
2023/06/18 00:38:59;;;;;;;;;;;;;;;19.87;50.09;100166.81;5391355;32;35967;-69
2023/06/18 00:42:01;;;;;;;;;;;;;;;20.01;49.96;100174.53;5402558;32;34303;-66
2023/06/18 00:45:04;;;;;;;;;;;;;;;19.86;50.22;100171.31;5404413;32;34578;-74
2023/06/18 00:48:05;;;;;;;;;;;;;;;20.38;48.82;100166.16;5399007;32;34678;-67
2023/06/18 00:51:08;;;;;;;;;;;;;;;19.61;51.06;100166.25;5407485;32;34861;-75
2023/06/18 00:54:13;;;;;;;;;;;;;;;19.52;51.45;100161.63;5388770;32;34680;-69
2023/06/18 00:57:17;;;;;;;;;;;;;;;19.48;51.37;100163.69;5403988;32;34391;-76
2023/06/18 01:00:22;;;;;;;;;;;;;;;19.65;50.84;100167.72;5389542;32;34541;-68
2023/06/18 01:03:25;;;;;;;;;;;;;;;19.84;50.30;100172.41;5403637;32;34164;-75
2023/06/18 01:06:28;;;;;;;;;;;;;;;19.70;51.07;100165.50;5403714;32;35089;-74
2023/06/18 01:09:30;;;;;;;;;;;;;;;19.30;52.19;100173.13;5389318;32;35279;-68
2023/06/18 01:12:33;;;;;;;;;;;;;;;20.10;50.02;100164.94;5391765;32;34365;-68
2023/06/18 01:15:35;;;;;;;;;;;;;;;19.36;52.04;100175.31;5376973;32;34798;-68
2023/06/18 01:18:47;;;;;;;;;;;;;;;19.46;52.09;100173.63;5406618;32;35450;-68
2023/06/18 01:21:50;;;;;;;;;;;;;;;19.36;52.07;100170.81;5401368;32;34932;-68
2023/06/18 01:24:57;;;;;;;;;;;;;;;19.60;51.75;100169.88;5398751;32;35922;-74
2023/06/18 01:28:00;;;;;;;;;;;;;;;20.00;50.84;100168.34;5406108;32;33970;-67
2023/06/18 01:31:02;;;;;;;;;;;;;;;19.32;52.41;100169.41;5388384;32;34569;-68
2023/06/18 01:34:04;;;;;;;;;;;;;;;19.72;51.30;100167.09;5380752;32;34936;-68
2023/06/18 01:37:14;;;;;;;;;;;;;;;19.03;53.65;100165.50;5405650;32;34685;-69
2023/06/18 01:40:25;;;;;;;;;;;;;;;19.61;52.06;100163.59;5404112;32;34693;-73
2023/06/18 01:43:46;;;;;;;;;;;;;;;19.66;51.80;100172.91;5399883;32;35490;-73
2023/06/18 01:46:48;;;;;;;;;;;;;;;19.39;52.39;100169.75;5400532;32;35849;-68
2023/06/18 01:49:50;;;;;;;;;;;;;;;19.35;52.87;100171.81;5392835;32;34880;-75
2023/06/18 01:52:52;;;;;;;;;;;;;;;19.27;52.91;100174.22;5400878;32;35635;-69
2023/06/18 01:55:56;;;;;;;;;;;;;;;19.65;51.97;100176.56;5380290;32;35562;-67
2023/06/18 01:58:58;;;;;;;;;;;;;;;19.24;53.20;100181.59;5376369;32;34611;-68
2023/06/18 02:02:00;;;;;;;;;;;;;;;19.52;52.48;100175.81;5403367;32;34311;-67
2023/06/18 02:05:02;;;;;;;;;;;;;;;19.18;53.62;100182.94;5409462;32;34448;-67
2023/06/18 02:08:04;;;;;;;;;;;;;;;19.45;53.16;100183.44;5403976;32;34445;-67
2023/06/18 02:11:06;;;;;;;;;;;;;;;19.68;52.16;100180.78;5409552;32;34987;-72
2023/06/18 02:14:08;;;;;;;;;;;;;;;19.89;51.60;100184.38;5390613;32;34968;-68
2023/06/18 02:17:10;;;;;;;;;;;;;;;19.69;52.01;100182.47;5403002;32;35842;-75
2023/06/18 02:20:12;;;;;;;;;;;;;;;19.36;52.58;100184.16;5403855;32;35322;-73
2023/06/18 02:23:14;;;;;;;;;;;;;;;19.15;53.43;100200.00;5387993;32;34237;-68
2023/06/18 02:26:17;;;;;;;;;;;;;;;19.57;52.26;100184.25;5405015;32;36116;-74
2023/06/18 02:29:19;;;;;;;;;;;;;;;19.23;52.82;100198.56;5402817;32;35151;-74
2023/06/18 02:32:21;;;;;;;;;;;;;;;19.46;52.38;100194.94;5408274;32;34804;-74
2023/06/18 02:35:22;;;;;;;;;;;;;;;18.91;53.58;100194.75;5404624;32;34333;-68
2023/06/18 02:38:24;;;;;;;;;;;;;;;18.92;53.50;100206.25;5410510;32;34656;-68
2023/06/18 02:41:27;;;;;;;;;;;;;;;18.71;54.44;100203.41;5399286;32;35771;-72
2023/06/18 02:44:31;;;;;;;;;;;;;;;19.32;52.24;100196.03;5402279;32;35098;-69
2023/06/18 02:47:33;;;;;;;;;;;;;;;19.19;52.68;100197.94;5408469;32;34716;-75
2023/06/18 02:50:35;;;;;;;;;;;;;;;19.13;53.13;100207.28;5400974;32;34454;-68
2023/06/18 02:53:37;;;;;;;;;;;;;;;19.85;51.09;100201.62;5408709;32;35075;-67
2023/06/18 02:56:40;;;;;;;;;;;;;;;19.66;51.41;100207.56;5404185;32;35369;-68
2023/06/18 02:59:42;;;;;;;;;;;;;;;19.28;52.41;100215.88;5407677;32;35153;-68
2023/06/18 03:02:44;;;;;;;;;;;;;;;19.03;53.07;100224.09;5405533;32;34332;-67
2023/06/18 03:05:47;;;;;;;;;;;;;;;19.16;53.02;100219.50;5404472;32;34741;-72
2023/06/18 03:08:49;;;;;;;;;;;;;;;19.88;51.24;100214.69;5402217;32;35670;-67
2023/06/18 03:11:51;;;;;;;;;;;;;;;18.92;53.66;100222.22;5404453;32;34664;-67
2023/06/18 03:14:53;;;;;;;;;;;;;;;19.28;52.60;100229.22;5407855;32;34262;-73
2023/06/18 03:17:55;;;;;;;;;;;;;;;19.62;51.68;100226.59;5405920;32;35174;-68
2023/06/18 03:20:57;;;;;;;;;;;;;;;18.92;53.27;100219.56;5401782;32;34446;-75
2023/06/18 03:23:59;;;;;;;;;;;;;;;18.62;54.60;100231.56;5391791;32;35351;-68
2023/06/18 03:27:01;;;;;;;;;;;;;;;18.65;54.51;100230.47;5404118;32;33478;-68
2023/06/18 03:30:04;;;;;;;;;;;;;;;18.75;54.54;100236.84;5407958;32;34999;-75
2023/06/18 03:33:06;;;;;;;;;;;;;;;18.92;54.05;100233.72;5403222;32;35157;-75
2023/06/18 03:36:08;;;;;;;;;;;;;;;18.69;54.94;100231.13;5408873;32;34875;-76
2023/06/18 03:39:10;;;;;;;;;;;;;;;19.84;51.72;100231.91;5404976;32;34304;-68
2023/06/18 03:42:12;;;;;;;;;;;;;;;19.77;51.56;100232.50;5401444;32;37229;-74
2023/06/18 03:45:14;;;;;;;;;;;;;;;19.56;52.65;100232.38;5404179;32;34646;-68
2023/06/18 03:48:16;;;;;;;;;;;;;;;19.47;53.05;100239.28;5401477;32;35303;-67
2023/06/18 03:51:18;;;;;;;;;;;;;;;20.24;50.55;100234.03;5408226;32;34932;-67
2023/06/18 03:54:24;;;;;;;;;;;;;;;19.80;51.11;100242.94;5397954;32;35845;-76
2023/06/18 03:57:26;;;;;;;;;;;;;;;19.49;51.96;100240.84;5407908;32;34204;-76
2023/06/18 04:00:28;;;;;;;;;;;;;;;19.88;50.66;100243.19;5404025;32;35493;-74
2023/06/18 04:03:29;;;;;;;;;;;;;;;19.85;50.55;100238.94;5405753;32;34784;-74
2023/06/18 04:06:32;;;;;;;;;;;;;;;19.88;50.24;100249.34;5392374;32;35251;-67
2023/06/18 04:09:34;;;;;;;;;;;;;;;19.88;50.44;100241.34;5397245;32;34797;-70
2023/06/18 04:12:36;;;;;;;;;;;;;;;20.08;50.38;100245.09;5407635;32;34788;-67
2023/06/18 04:15:37;;;;;;;;;;;;;;;19.98;50.28;100249.47;5406706;32;34273;-68
2023/06/18 04:18:39;;;;;;;;;;;;;;;20.62;48.67;100248.75;5405510;32;34737;-66
2023/06/18 04:21:41;;;;;;;;;;;;;;;20.09;49.85;100246.78;5403696;32;35245;-76
2023/06/18 04:24:43;;;;;;;;;;;;;;;20.28;49.21;100249.63;5404449;32;34507;-69
2023/06/18 04:27:45;;;;;;;;;;;;;;;20.51;49.02;100246.94;5406245;32;34988;-75
2023/06/18 04:30:47;;;;;;;;;;;;;;;20.85;48.10;100244.97;5389434;32;34808;-68
2023/06/18 04:33:49;;;;;;;;;;;;;;;20.74;48.42;100256.56;5408009;32;34841;-75
2023/06/18 04:36:51;;;;;;;;;;;;;;;20.98;48.09;100244.78;5404730;32;34448;-75
2023/06/18 04:39:53;;;;;;;;;;;;;;;21.36;47.12;100258.44;5403729;32;34926;-75
2023/06/18 04:42:55;;;;;;;;;;;;;;;21.56;46.75;100254.03;5384952;32;34336;-68
2023/06/18 04:45:58;;;;;;;;;;;;;;;21.47;47.27;100262.00;5392171;32;34170;-76
2023/06/18 04:49:00;;;;;;;;;;;;;;;22.23;45.63;100255.28;5391760;32;34630;-75
2023/06/18 04:52:02;;;;;;;;;;;;;;;22.17;45.23;100258.50;5403188;32;34852;-67
2023/06/18 04:55:05;;;;;;;;;;;;;;;22.61;43.98;100253.66;5407583;32;35034;-75
2023/06/18 04:58:07;;;;;;;;;;;;;;;23.08;42.94;100261.81;5402849;32;34405;-75
2023/06/18 05:01:09;;;;;;;;;;;;;;;23.04;43.15;100268.44;5407682;32;35048;-74
2023/06/18 05:04:11;;;;;;;;;;;;;;;23.99;40.62;100265.66;5403106;32;34809;-68
2023/06/18 05:07:13;;;;;;;;;;;;;;;23.13;42.45;100268.44;5401016;32;35348;-73
2023/06/18 05:10:16;;;;;;;;;;;;;;;23.86;40.72;100262.47;5406995;32;34340;-77
2023/06/18 05:13:17;;;;;;;;;;;;;;;24.14;40.36;100268.66;5402737;32;34876;-71
2023/06/18 05:16:19;;;;;;;;;;;;;;;25.90;37.43;100267.84;5407452;32;34542;-67
2023/06/18 05:19:21;;;;;;;;;;;;;;;24.91;38.90;100278.88;5399756;32;35215;-68
2023/06/18 05:22:23;;;;;;;;;;;;;;;24.89;39.17;100278.22;5407874;32;34708;-69
2023/06/18 05:25:25;;;;;;;;;;;;;;;25.96;37.58;100271.75;5389891;32;34986;-69
2023/06/18 05:28:27;;;;;;;;;;;;;;;26.33;35.63;100274.87;5389612;32;33996;-70
2023/06/18 05:31:29;;;;;;;;;;;;;;;26.52;35.56;100278.31;5406601;32;35585;-68
2023/06/18 05:34:31;;;;;;;;;;;;;;;26.61;35.32;100282.72;5403100;32;35365;-68
2023/06/18 05:37:33;;;;;;;;;;;;;;;26.81;35.40;100278.72;5410266;32;34718;-75
2023/06/18 05:40:35;;;;;;;;;;;;;;;27.31;33.78;100280.41;5403336;32;35399;-68
2023/06/18 05:43:37;;;;;;;;;;;;;;;27.93;32.77;100290.56;5406716;32;34503;-77
2023/06/18 05:46:39;;;;;;;;;;;;;;;27.45;33.34;100293.22;5405690;32;34357;-76
2023/06/18 05:49:41;;;;;;;;;;;;;;;29.30;30.50;100295.31;5405928;32;34473;-68
2023/06/18 05:52:43;;;;;;;;;;;;;;;28.04;31.43;100293.75;5394673;32;35215;-75
2023/06/18 05:55:45;;;;;;;;;;;;;;;28.06;31.61;100296.25;5403964;32;34348;-76
2023/06/18 05:58:47;;;;;;;;;;;;;;;27.82;31.77;100299.03;5405438;32;34668;-76
2023/06/18 06:01:48;;;;;;;;;;;;;;;29.45;29.47;100296.19;5405163;32;34683;-69
2023/06/18 06:04:51;;;;;;;;;;;;;;;26.61;33.73;100297.06;5382743;32;35793;-70
2023/06/18 06:07:53;;;;;;;;;;;;;;;27.84;31.84;100305.97;5405106;32;35024;-68
2023/06/18 06:10:55;;;;;;;;;;;;;;;28.50;31.04;100295.72;5390315;32;36014;-74
2023/06/18 06:13:58;;;;;;;;;;;;;;;27.16;32.69;100296.44;5406147;32;34630;-68
2023/06/18 06:17:00;;;;;;;;;;;;;;;28.06;31.41;100297.09;5406735;32;34716;-69
2023/06/18 06:20:02;;;;;;;;;;;;;;;29.86;28.55;100302.03;5408951;32;35414;-76
2023/06/18 06:23:04;;;;;;;;;;;;;;;28.90;29.67;100304.59;5401924;32;34103;-68
2023/06/18 06:26:06;;;;;;;;;;;;;;;27.07;32.69;100304.72;5408161;32;34239;-76
2023/06/18 06:29:08;;;;;;;;;;;;;;;29.06;29.19;100309.91;5391699;32;34200;-76
2023/06/18 06:32:10;;;;;;;;;;;;;;;28.74;30.58;100300.16;5403571;32;34650;-78
2023/06/18 06:35:12;;;;;;;;;;;;;;;29.57;29.72;100302.88;5409376;32;34849;-69
2023/06/18 06:38:14;;;;;;;;;;;;;;;30.11;28.89;100304.47;5408457;32;35199;-69
2023/06/18 06:41:16;;;;;;;;;;;;;;;29.26;30.24;100304.84;5391666;32;35329;-69
2023/06/18 06:44:18;;;;;;;;;;;;;;;29.01;30.66;100307.75;5387772;32;34596;-75
2023/06/18 06:47:20;;;;;;;;;;;;;;;31.86;25.74;100296.78;5406678;32;34430;-75
2023/06/18 06:50:24;;;;;;;;;;;;;;;30.69;27.42;100308.09;5403674;32;34518;-76
2023/06/18 06:53:26;;;;;;;;;;;;;;;29.69;28.16;100314.09;5403885;32;34290;-74
2023/06/18 06:56:28;;;;;;;;;;;;;;;27.26;31.42;100310.59;5408462;32;34279;-69
2023/06/18 06:59:31;;;;;;;;;;;;;;;30.30;26.64;100303.88;5390913;32;34365;-76
2023/06/18 07:02:33;;;;;;;;;;;;;;;29.23;28.56;100316.84;5408435;32;34685;-69
2023/06/18 07:05:35;;;;;;;;;;;;;;;28.29;29.58;100304.44;5397340;32;34667;-76
2023/06/18 07:08:38;;;;;;;;;;;;;;;28.69;28.74;100314.19;5408221;32;35078;-68
2023/06/18 07:11:40;;;;;;;;;;;;;;;27.35;30.50;100313.28;5404538;32;34956;-76
2023/06/18 07:14:42;;;;;;;;;;;;;;;28.98;28.07;100310.81;5404121;32;34969;-68
2023/06/18 07:17:44;;;;;;;;;;;;;;;29.14;27.67;100307.97;5403225;32;34463;-68
2023/06/18 07:20:48;;;;;;;;;;;;;;;29.65;27.68;100305.47;5390988;32;35327;-76
2023/06/18 07:23:50;;;;;;;;;;;;;;;30.09;26.74;100304.63;5408671;32;35454;-70
2023/06/18 07:26:52;;;;;;;;;;;;;;;31.36;25.44;100301.44;5404328;32;34817;-75
2023/06/18 07:29:56;;;;;;;;;;;;;;;30.46;26.86;100298.25;5408495;32;35771;-76
2023/06/18 07:32:58;;;;;;;;;;;;;;;30.73;25.99;100299.41;5403623;32;34516;-77
2023/06/18 07:36:00;;;;;;;;;;;;;;;30.28;26.86;100288.84;5404160;32;34934;-75
2023/06/18 07:39:02;;;;;;;;;;;;;;;29.97;26.77;100308.84;5412249;32;35000;-68
2023/06/18 07:42:04;;;;;;;;;;;;;;;30.09;26.73;100301.09;5392574;32;34943;-75
2023/06/18 07:45:06;;;;;;;;;;;;;;;29.08;28.61;100297.03;5404355;32;34529;-75
2023/06/18 07:48:08;;;;;;;;;;;;;;;30.82;26.54;100286.53;5401300;32;34337;-74
2023/06/18 07:51:10;;;;;;;;;;;;;;;30.54;25.06;100288.31;5405517;32;35051;-73
2023/06/18 07:54:12;;;;;;;;;;;;;;;30.99;24.41;100289.84;5405313;32;34445;-69
2023/06/18 07:57:15;;;;;;;;;;;;;;;31.24;24.26;100284.87;5389292;32;35098;-76
2023/06/18 08:00:17;;;;;;;;;;;;;;;31.98;23.14;100284.31;5406832;32;34626;-76
2023/06/18 08:03:18;;;;;;;;;;;;;;;32.10;23.26;100285.41;5402989;32;34629;-69
2023/06/18 08:06:20;;;;;;;;;;;;;;;32.27;22.95;100275.03;5405557;32;34341;-75
2023/06/18 08:09:22;;;;;;;;;;;;;;;32.29;22.82;100278.38;5402968;32;34264;-69
2023/06/18 08:12:25;;;;;;;;;;;;;;;31.13;23.94;100278.06;5402467;32;35623;-74
2023/06/18 08:15:27;;;;;;;;;;;;;;;30.31;25.92;100283.03;5406261;32;34837;-73
2023/06/18 08:18:29;;;;;;;;;;;;;;;31.72;23.87;100283.09;5402358;32;35258;-70
2023/06/18 08:21:31;;;;;;;;;;;;;;;30.41;25.24;100289.00;5405058;32;35466;-73
2023/06/18 08:24:33;;;;;;;;;;;;;;;32.27;23.38;100277.75;5402667;32;34502;-69
2023/06/18 08:27:36;;;;;;;;;;;;;;;30.62;25.20;100274.63;5407321;32;35719;-75
2023/06/18 08:30:38;;;;;;;;;;;;;;;31.80;23.79;100285.66;5404470;32;34955;-75
2023/06/18 08:33:39;;;;;;;;;;;;;;;32.12;23.11;100275.16;5405945;32;35062;-68
2023/06/18 08:36:46;;;;;;;;;;;;;;;33.02;22.15;100270.38;5405375;32;35441;-68
2023/06/18 08:39:48;;;;;;;;;;;;;;;31.28;23.70;100275.25;5396596;32;34181;-77
2023/06/18 08:42:50;;;;;;;;;;;;;;;33.04;21.56;100280.03;5404937;32;34286;-69
2023/06/18 08:46:11;;;;;;;;;;;;;;;32.66;21.41;100270.75;5400299;32;35014;-69
2023/06/18 08:49:14;;;;;;;;;;;;;;;31.33;23.35;100271.97;5407808;32;34715;-73
2023/06/18 08:52:17;;;;;;;;;;;;;;;32.67;22.47;100272.44;5389536;32;34278;-68
2023/06/18 08:55:19;;;;;;;;;;;;;;;33.85;21.29;100257.91;5403082;32;35119;-68
2023/06/18 08:58:22;;;;;;;;;;;;;;;32.34;22.53;100262.31;5404011;32;35423;-69
2023/06/18 09:01:27;;;;;;;;;;;;;;;34.01;20.98;100261.28;5376196;32;34195;-67
2023/06/18 09:04:29;;;;;;;;;;;;;;;32.94;21.89;100266.00;5399383;32;36189;-68
2023/06/18 09:07:31;;;;;;;;;;;;;;;35.34;19.01;100264.81;5387585;32;35468;-68
2023/06/18 09:10:33;;;;;;;;;;;;;;;32.81;21.32;100263.22;5394114;32;35339;-69
2023/06/18 09:13:38;;;;;;;;;;;;;;;31.21;23.56;100263.50;5390621;32;35681;-67
2023/06/18 09:16:41;;;;;;;;;;;;;;;34.21;20.28;100268.31;5391053;32;36836;-75
2023/06/18 09:19:43;;;;;;;;;;;;;;;33.57;20.04;100271.84;5401375;32;34795;-69
2023/06/18 09:22:46;;;;;;;;;;;;;;;34.44;19.35;100273.22;5389721;32;35782;-77
2023/06/18 09:25:48;;;;;;;;;;;;;;;31.12;23.25;100262.81;5394961;32;35842;-73
2023/06/18 09:28:50;;;;;;;;;;;;;;;31.45;22.63;100265.78;5401339;32;34694;-76
2023/06/18 09:31:52;;;;;;;;;;;;;;;33.27;20.33;100271.44;5393487;32;36005;-69
2023/06/18 09:34:54;;;;;;;;;;;;;;;32.38;21.42;100268.16;5398419;32;35042;-74
2023/06/18 09:37:56;;;;;;;;;;;;;;;33.00;20.32;100265.16;5406916;32;35074;-76
2023/06/18 09:40:58;;;;;;;;;;;;;;;32.01;21.21;100276.59;5392953;32;34896;-75
2023/06/18 09:44:00;;;;;;;;;;;;;;;33.68;19.00;100270.34;5387605;32;35217;-76
2023/06/18 09:47:09;;;;;;;;;;;;;;;33.76;20.04;100272.84;5407458;32;34906;-69
2023/06/18 09:50:11;;;;;;;;;;;;;;;33.73;19.69;100265.09;5384206;32;34590;-69
2023/06/18 09:53:16;;;;;;;;;;;;;;;34.57;18.36;100266.84;5403167;32;35500;-77
2023/06/18 09:56:18;;;;;;;;;;;;;;;35.29;17.90;100253.69;5392085;32;32741;-75
2023/06/18 09:59:23;;;;;;;;;;;;;;;33.37;20.04;100263.69;5391174;32;36532;-77
2023/06/18 10:02:25;;;;;;;;;;;;;;;33.65;19.65;100258.00;5408465;32;34862;-69
2023/06/18 10:05:27;;;;;;;;;;;;;;;35.11;18.43;100254.53;5404424;32;34815;-77
2023/06/18 10:08:29;;;;;;;;;;;;;;;33.42;19.54;100260.34;5394895;32;35316;-76
2023/06/18 10:11:31;;;;;;;;;;;;;;;31.21;22.49;100268.91;5389914;32;34285;-70
2023/06/18 10:14:34;;;;;;;;;;;;;;;32.16;21.77;100254.69;5392384;32;35146;-73
2023/06/18 10:17:36;;;;;;;;;;;;;;;32.76;21.23;100258.41;5407705;32;35330;-76
2023/06/18 10:20:38;;;;;;;;;;;;;;;34.15;19.27;100257.44;5398958;32;35035;-76
2023/06/18 10:23:40;;;;;;;;;;;;;;;33.87;19.81;100258.53;5403643;32;35129;-76
2023/06/18 10:26:42;;;;;;;;;;;;;;;34.34;19.73;100252.94;5377638;32;35550;-75
2023/06/18 10:29:44;;;;;;;;;;;;;;;33.59;20.30;100252.56;5406870;32;34467;-75
2023/06/18 10:32:46;;;;;;;;;;;;;;;33.45;20.52;100257.19;5403715;32;34749;-76
2023/06/18 10:35:48;;;;;;;;;;;;;;;34.26;19.65;100250.44;5405269;32;34610;-69
2023/06/18 10:38:50;;;;;;;;;;;;;;;35.39;18.35;100245.84;5404559;32;37004;-71
2023/06/18 10:41:52;;;;;;;;;;;;;;;34.97;18.80;100239.28;5387825;32;35618;-70
2023/06/18 10:44:57;;;;;;;;;;;;;;;35.89;17.77;100244.91;5405838;32;35274;-76
2023/06/18 10:48:15;;;;;;;;;;;;;;;36.71;17.20;100250.75;5403276;32;34701;-69
2023/06/18 10:51:17;;;;;;;;;;;;;;;35.36;18.26;100249.03;5405743;32;34822;-74
2023/06/18 10:54:21;;;;;;;;;;;;;;;34.56;18.23;100253.44;5404568;32;34667;-68
2023/06/18 10:57:27;;;;;;;;;;;;;;;32.92;20.32;100261.81;5390333;32;35255;-68
2023/06/18 11:00:41;;;;;;;;;;;;;;;33.33;20.24;100253.41;5406531;32;35057;-75
2023/06/18 11:03:43;;;;;;;;;;;;;;;34.42;18.65;100253.53;5402435;32;36112;-75
2023/06/18 11:06:45;;;;;;;;;;;;;;;34.19;19.25;100247.75;5408283;32;34873;-69
2023/06/18 11:09:48;;;;;;;;;;;;;;;33.05;20.66;100250.94;5401789;32;34321;-72
2023/06/18 11:12:50;;;;;;;;;;;;;;;34.17;19.46;100247.13;5404166;32;34557;-75
2023/06/18 11:16:10;;;;;;;;;;;;;;;33.56;19.93;100244.81;5407238;32;35403;-74
2023/06/18 11:19:12;;;;;;;;;;;;;;;33.84;19.34;100237.19;5390736;32;34823;-69
2023/06/18 11:22:14;;;;;;;;;;;;;;;36.32;17.28;100233.81;5381586;32;35652;-69
2023/06/18 11:25:18;;;;;;;;;;;;;;;36.44;17.56;100234.72;5401345;32;35196;-69
2023/06/18 11:28:21;;;;;;;;;;;;;;;35.60;18.36;100233.66;5406476;32;35415;-69
2023/06/18 11:31:28;;;;;;;;;;;;;;;35.64;18.22;100223.94;5403986;32;34815;-75
2023/06/18 11:34:30;;;;;;;;;;;;;;;34.47;18.84;100218.25;5401806;32;35348;-69
2023/06/18 11:37:32;;;;;;;;;;;;;;;34.36;19.27;100223.53;5411548;32;34669;-76
2023/06/18 11:40:35;;;;;;;;;;;;;;;34.90;19.01;100228.41;5375495;32;34802;-70
2023/06/18 11:43:46;;;;;;;;;;;;;;;33.46;20.67;100226.19;5389376;32;34746;-69
2023/06/18 11:46:49;;;;;;;;;;;;;;;34.37;19.75;100215.12;5402181;32;35686;-74
2023/06/18 11:49:51;;;;;;;;;;;;;;;36.01;18.37;100218.50;5397059;32;35529;-68
2023/06/18 11:52:53;;;;;;;;;;;;;;;35.19;18.94;100223.34;5401062;32;35759;-75
2023/06/18 11:55:56;;;;;;;;;;;;;;;35.62;18.95;100219.75;5403430;32;34990;-70
2023/06/18 11:58:58;;;;;;;;;;;;;;;34.64;19.87;100213.06;5406286;32;34889;-70
2023/06/18 12:02:10;;;;;;;;;;;;;;;34.10;20.46;100216.34;5400500;32;35054;-69
2023/06/18 12:05:12;;;;;;;;;;;;;;;30.84;24.25;100224.78;5408263;32;34906;-75
2023/06/18 12:08:14;;;;;;;;;;;;;;;30.48;25.05;100222.97;5402302;32;35714;-76
2023/06/18 12:11:49;;;;;;;;;;;;;;;30.18;25.72;100224.09;5403193;32;34262;-69
2023/06/18 12:14:51;;;;;;;;;;;;;;;30.33;25.44;100215.91;5380272;32;34511;-69
2023/06/18 12:18:12;;;;;;;;;;;;;;;29.83;26.02;100220.31;5398758;32;34750;-76
2023/06/18 12:21:14;;;;;;;;;;;;;;;30.60;24.52;100207.03;5406917;32;35270;-68
2023/06/18 12:24:16;;;;;;;;;;;;;;;31.43;23.72;100215.41;5400712;32;34799;-68
2023/06/18 12:27:20;;;;;;;;;;;;;;;30.71;24.74;100216.50;5401176;32;35164;-73
2023/06/18 12:30:37;;;;;;;;;;;;;;;30.33;25.11;100213.19;5407674;32;35272;-75
2023/06/18 12:33:42;;;;;;;;;;;;;;;30.99;24.13;100201.12;5398353;32;34773;-76
2023/06/18 12:36:44;;;;;;;;;;;;;;;30.79;24.20;100205.56;5407005;32;34823;-76
2023/06/18 12:40:05;;;;;;;;;;;;;;;30.53;24.78;100203.41;5401437;32;34292;-68
2023/06/18 12:43:08;;;;;;;;;;;;;;;29.56;24.98;100213.69;5399617;32;34315;-67
2023/06/18 12:46:10;;;;;;;;;;;;;;;30.11;24.89;100205.03;5413873;32;34267;-69
2023/06/18 12:49:17;;;;;;;;;;;;;;;30.14;24.89;100198.38;5402721;32;34730;-68
2023/06/18 12:52:19;;;;;;;;;;;;;;;30.08;25.01;100196.44;5403654;32;34719;-69
2023/06/18 12:55:22;;;;;;;;;;;;;;;30.16;24.16;100197.19;5402564;32;32664;-70
2023/06/18 12:58:25;;;;;;;;;;;;;;;29.09;25.33;100190.47;5405641;32;35111;-68
2023/06/18 13:01:27;;;;;;;;;;;;;;;30.34;24.54;100185.91;5400679;32;35681;-68
2023/06/18 13:04:29;;;;;;;;;;;;;;;29.85;25.65;100186.56;5402146;32;35842;-69
2023/06/18 13:07:31;;;;;;;;;;;;;;;29.16;26.44;100198.69;5406298;32;35359;-76
2023/06/18 13:10:33;;;;;;;;;;;;;;;29.54;25.15;100194.06;5389272;32;35474;-75
2023/06/18 13:13:35;;;;;;;;;;;;;;;29.64;24.86;100186.53;5388420;32;34897;-73
2023/06/18 13:16:37;;;;;;;;;;;;;;;29.55;25.60;100187.62;5404407;32;34916;-75
2023/06/18 13:19:39;;;;;;;;;;;;;;;29.65;25.64;100175.50;5403700;32;35023;-68
2023/06/18 13:23:00;;;;;;;;;;;;;;;29.66;26.00;100188.00;5404748;32;35412;-67
2023/06/18 13:26:02;;;;;;;;;;;;;;;30.41;24.67;100175.13;5401479;32;35296;-68
2023/06/18 13:29:04;;;;;;;;;;;;;;;29.89;25.89;100189.75;5407659;32;35033;-68
2023/06/18 13:32:06;;;;;;;;;;;;;;;30.34;24.64;100187.78;5399200;32;34120;-75
2023/06/18 13:35:08;;;;;;;;;;;;;;;30.21;24.73;100196.63;5406401;32;34604;-74
2023/06/18 13:38:10;;;;;;;;;;;;;;;30.04;24.48;100179.72;5401009;32;34309;-69
2023/06/18 13:41:12;;;;;;;;;;;;;;;30.36;24.98;100183.00;5400861;32;35268;-68
2023/06/18 13:44:14;;;;;;;;;;;;;;;30.15;24.34;100176.53;5401643;32;35483;-68
2023/06/18 13:47:16;;;;;;;;;;;;;;;30.00;24.48;100181.09;5401870;32;34211;-69
2023/06/18 13:50:18;;;;;;;;;;;;;;;29.74;25.89;100173.50;5406291;32;34686;-75
2023/06/18 13:53:20;;;;;;;;;;;;;;;29.81;26.07;100179.84;5400803;32;34405;-76
2023/06/18 13:56:22;;;;;;;;;;;;;;;29.18;26.70;100183.13;5405941;32;34662;-76
2023/06/18 13:59:25;;;;;;;;;;;;;;;29.26;26.79;100183.88;5402270;32;34317;-68
2023/06/18 14:02:27;;;;;;;;;;;;;;;29.51;25.84;100170.06;5403027;32;34874;-68
2023/06/18 14:05:29;;;;;;;;;;;;;;;29.24;25.73;100177.81;5407354;32;33542;-76
2023/06/18 14:08:31;;;;;;;;;;;;;;;30.52;23.55;100174.59;5403646;32;34356;-74
2023/06/18 14:11:33;;;;;;;;;;;;;;;29.78;24.13;100177.53;5409138;32;35047;-76
2023/06/18 14:14:35;;;;;;;;;;;;;;;30.53;23.27;100167.28;5390042;32;35468;-73
2023/06/18 14:17:37;;;;;;;;;;;;;;;29.43;24.84;100176.41;5410881;32;34777;-73
2023/06/18 14:20:41;;;;;;;;;;;;;;;29.62;24.54;100175.00;5404172;32;34478;-75
2023/06/18 14:23:46;;;;;;;;;;;;;;;29.54;23.82;100167.84;5403922;32;34922;-76
2023/06/18 14:26:50;;;;;;;;;;;;;;;30.19;23.31;100172.37;5406295;32;34589;-73
2023/06/18 14:29:52;;;;;;;;;;;;;;;29.59;24.29;100173.53;5402418;32;35436;-68
2023/06/18 14:32:54;;;;;;;;;;;;;;;30.40;23.43;100173.44;5393252;32;34885;-75
2023/06/18 14:35:56;;;;;;;;;;;;;;;29.74;24.54;100162.66;5403601;32;35379;-68
2023/06/18 14:38:58;;;;;;;;;;;;;;;30.13;23.93;100166.91;5409645;32;34250;-69
2023/06/18 14:42:00;;;;;;;;;;;;;;;29.84;24.23;100165.94;5401911;32;35290;-68
2023/06/18 14:45:02;;;;;;;;;;;;;;;30.14;22.72;100169.44;5398502;32;35303;-68
2023/06/18 14:48:04;;;;;;;;;;;;;;;29.82;23.26;100159.88;5407634;32;33987;-68
2023/06/18 14:51:07;;;;;;;;;;;;;;;29.55;23.83;100166.81;5378561;32;34797;-69
2023/06/18 14:54:12;;;;;;;;;;;;;;;29.97;23.51;100167.13;5405059;32;34747;-68
2023/06/18 14:57:14;;;;;;;;;;;;;;;29.40;23.42;100169.50;5404383;32;36892;-77
2023/06/18 15:00:16;;;;;;;;;;;;;;;29.57;23.96;100164.78;5407489;32;36410;-75
2023/06/18 15:03:19;;;;;;;;;;;;;;;29.55;24.18;100168.69;5403023;32;35765;-75
2023/06/18 15:06:21;;;;;;;;;;;;;;;29.43;24.17;100157.44;5403736;32;34913;-69
2023/06/18 15:09:23;;;;;;;;;;;;;;;29.64;24.21;100160.28;5405862;32;34885;-69
2023/06/18 15:12:25;;;;;;;;;;;;;;;29.93;23.35;100151.22;5403046;32;35576;-76
2023/06/18 15:15:27;;;;;;;;;;;;;;;29.74;23.39;100157.25;5396835;32;34826;-68
2023/06/18 15:18:29;;;;;;;;;;;;;;;29.28;23.82;100157.47;5403714;32;34887;-74
2023/06/18 15:21:33;;;;;;;;;;;;;;;29.79;23.61;100151.28;5393775;32;34872;-76
2023/06/18 15:24:35;;;;;;;;;;;;;;;29.20;24.79;100162.97;5376521;32;860958;-75
2023/06/18 15:27:37;;;;;;;;;;;;;;;29.38;25.02;100151.78;5403157;32;34698;-68
2023/06/18 15:30:39;;;;;;;;;;;;;;;29.51;24.96;100157.41;5401145;32;35421;-69
2023/06/18 15:33:41;;;;;;;;;;;;;;;29.10;24.42;100156.97;5403325;32;35121;-69
2023/06/18 15:36:43;;;;;;;;;;;;;;;29.84;23.17;100146.97;5407893;32;35491;-76
2023/06/18 15:39:48;;;;;;;;;;;;;;;29.77;23.17;100153.34;5405350;32;34444;-68